createdAt,value
2018-09-14T00:00:27.000Z,1015.06
2018-09-14T00:01:27.013Z,1015.02
2018-09-14T00:02:27.018Z,1015.05
2018-09-14T00:03:26.966Z,1015.11
2018-09-14T00:04:26.956Z,1015.10
2018-09-14T00:05:26.944Z,1015.08
2018-09-14T00:06:26.934Z,1015.14
2018-09-14T00:07:26.945Z,1015.11
2018-09-14T00:08:26.921Z,1015.10
2018-09-14T00:09:26.898Z,1015.08
2018-09-14T00:10:26.887Z,1015.10
2018-09-14T00:11:26.881Z,1015.10
2018-09-14T00:12:26.891Z,1015.08
2018-09-14T00:13:26.853Z,1015.07
2018-09-14T00:14:26.847Z,1015.09
2018-09-14T00:15:26.831Z,1015.06
2018-09-14T00:16:26.822Z,1015.05
2018-09-14T00:17:26.834Z,1015.06
2018-09-14T00:18:26.801Z,1015.01
2018-09-14T00:19:26.788Z,1015.05
2018-09-14T00:20:26.785Z,1015.02
2018-09-14T00:21:26.767Z,1015.00
2018-09-14T00:22:26.779Z,1015.06
2018-09-14T00:23:26.743Z,1015.06
2018-09-14T00:24:26.731Z,1015.03
2018-09-14T00:25:26.719Z,1015.04
2018-09-14T00:26:26.719Z,1014.98
2018-09-14T00:27:26.725Z,1014.99
2018-09-14T00:28:26.685Z,1014.99
2018-09-14T00:29:26.677Z,1015.05
2018-09-14T00:30:26.663Z,1015.01
2018-09-14T00:31:26.654Z,1015.01
2018-09-14T00:32:26.675Z,1015.01
2018-09-14T00:33:26.629Z,1014.99
2018-09-14T00:34:26.624Z,1015.02
2018-09-14T00:35:26.608Z,1015.02
2018-09-14T00:36:26.599Z,1015.02
2018-09-14T00:37:26.610Z,1015.02
2018-09-14T00:38:26.586Z,1015.03
2018-09-14T00:39:26.562Z,1015.03
2018-09-14T00:40:26.552Z,1015.00
2018-09-14T00:41:26.540Z,1015.03
2018-09-14T00:42:26.553Z,1015.01
2018-09-14T00:43:26.519Z,1015.01
2018-09-14T00:44:26.518Z,1015.00
2018-09-14T00:45:26.496Z,1015.07
2018-09-14T00:46:26.483Z,1015.03
2018-09-14T00:47:26.498Z,1015.06
2018-09-14T00:48:26.461Z,1015.07
2018-09-14T00:49:26.453Z,1015.03
2018-09-14T00:50:26.455Z,1015.01
2018-09-14T00:51:26.430Z,1015.07
2018-09-14T00:52:26.442Z,1015.03
2018-09-14T00:53:26.408Z,1015.01
2018-09-14T00:54:26.394Z,1014.99
2018-09-14T00:55:26.384Z,1015.05
2018-09-14T00:56:26.385Z,1015.03
2018-09-14T00:57:26.386Z,1015.01
2018-09-14T00:58:26.352Z,1015.06
2018-09-14T00:59:26.344Z,1015.00
2018-09-14T01:00:26.335Z,1015.03
2018-09-14T01:01:26.319Z,1014.99
2018-09-14T01:02:26.344Z,1015.01
2018-09-14T01:03:26.295Z,1015.02
2018-09-14T01:04:26.284Z,1015.01
2018-09-14T01:05:26.272Z,1015.03
2018-09-14T01:06:26.262Z,1015.03
2018-09-14T01:07:26.279Z,1015.05
2018-09-14T01:08:26.252Z,1015.02
2018-09-14T01:09:26.228Z,1015.04
2018-09-14T01:10:26.217Z,1015.06
2018-09-14T01:11:26.205Z,1015.07
2018-09-14T01:12:26.220Z,1015.02
2018-09-14T01:13:26.183Z,1015.02
2018-09-14T01:14:26.229Z,1014.98
2018-09-14T01:15:26.161Z,1014.99
2018-09-14T01:16:26.149Z,1015.00
2018-09-14T01:17:26.162Z,1014.97
2018-09-14T01:18:26.128Z,1014.97
2018-09-14T01:19:26.115Z,1015.00
2018-09-14T01:20:26.105Z,1014.96
2018-09-14T01:21:26.098Z,1014.93
2018-09-14T01:22:26.106Z,1014.96
2018-09-14T01:23:26.072Z,1014.95
2018-09-14T01:24:26.115Z,1015.00
2018-09-14T01:25:26.051Z,1014.95
2018-09-14T01:26:26.044Z,1014.92
2018-09-14T01:27:26.065Z,1014.93
2018-09-14T01:28:26.019Z,1014.90
2018-09-14T01:29:26.018Z,1014.93
2018-09-14T01:30:25.998Z,1014.89
2018-09-14T01:31:25.997Z,1014.92
2018-09-14T01:32:26.005Z,1014.89
2018-09-14T01:33:25.967Z,1014.92
2018-09-14T01:34:25.984Z,1014.89
2018-09-14T01:35:25.944Z,1014.82
2018-09-14T01:36:25.934Z,1014.86
2018-09-14T01:37:25.948Z,1014.89
2018-09-14T01:38:25.923Z,1014.91
2018-09-14T01:39:25.897Z,1014.90
2018-09-14T01:40:25.889Z,1014.87
2018-09-14T01:41:25.901Z,1014.92
2018-09-14T01:42:25.897Z,1014.90
2018-09-14T01:43:25.887Z,1014.91
2018-09-14T01:44:25.849Z,1014.88
2018-09-14T01:45:25.825Z,1014.88
2018-09-14T01:46:25.820Z,1014.89
2018-09-14T01:47:25.826Z,1014.90
2018-09-14T01:48:25.792Z,1014.89
2018-09-14T01:49:25.803Z,1014.86
2018-09-14T01:50:25.769Z,1014.89
2018-09-14T01:51:25.761Z,1014.88
2018-09-14T01:52:25.750Z,1014.84
2018-09-14T01:53:25.759Z,1014.88
2018-09-14T01:54:25.737Z,1014.87
2018-09-14T01:55:25.712Z,1014.87
2018-09-14T01:56:25.701Z,1014.90
2018-09-14T01:57:25.693Z,1014.89
2018-09-14T01:58:25.703Z,1014.86
2018-09-14T01:59:25.669Z,1014.79
2018-09-14T02:00:25.673Z,1014.83
2018-09-14T02:01:25.652Z,1014.80
2018-09-14T02:02:25.636Z,1014.81
2018-09-14T02:03:25.668Z,1014.84
2018-09-14T02:04:25.612Z,1014.85
2018-09-14T02:05:25.602Z,1014.79
2018-09-14T02:06:25.601Z,1014.80
2018-09-14T02:07:25.579Z,1014.82
2018-09-14T02:08:25.591Z,1014.85
2018-09-14T02:09:25.556Z,1014.83
2018-09-14T02:10:25.545Z,1014.85
2018-09-14T02:11:25.536Z,1014.82
2018-09-14T02:12:25.531Z,1014.91
2018-09-14T02:13:25.535Z,1014.83
2018-09-14T02:14:25.502Z,1014.81
2018-09-14T02:15:25.489Z,1014.83
2018-09-14T02:16:25.478Z,1014.81
2018-09-14T02:17:25.466Z,1014.79
2018-09-14T02:18:25.493Z,1014.82
2018-09-14T02:19:25.465Z,1014.82
2018-09-14T02:20:25.435Z,1014.80
2018-09-14T02:21:25.423Z,1014.81
2018-09-14T02:22:25.411Z,1014.80
2018-09-14T02:23:25.424Z,1014.78
2018-09-14T02:24:25.402Z,1014.84
2018-09-14T02:25:25.383Z,1014.84
2018-09-14T02:26:25.370Z,1014.77
2018-09-14T02:27:25.355Z,1014.80
2018-09-14T02:28:25.373Z,1014.78
2018-09-14T02:29:25.333Z,1014.81
2018-09-14T02:30:25.335Z,1014.82
2018-09-14T02:31:25.310Z,1014.79
2018-09-14T02:32:25.299Z,1014.80
2018-09-14T02:33:25.312Z,1014.81
2018-09-14T02:34:25.277Z,1014.72
2018-09-14T02:35:25.267Z,1014.76
2018-09-14T02:36:25.270Z,1014.77
2018-09-14T02:37:25.244Z,1014.72
2018-09-14T02:38:25.257Z,1014.73
2018-09-14T02:39:25.222Z,1014.74
2018-09-14T02:40:25.211Z,1014.74
2018-09-14T02:41:25.198Z,1014.77
2018-09-14T02:42:25.200Z,1014.73
2018-09-14T02:43:25.201Z,1014.76
2018-09-14T02:44:25.166Z,1014.78
2018-09-14T02:45:25.153Z,1014.77
2018-09-14T02:46:25.147Z,1014.78
2018-09-14T02:47:25.132Z,1014.80
2018-09-14T02:48:25.153Z,1014.78
2018-09-14T02:49:25.155Z,1014.75
2018-09-14T02:50:25.102Z,1014.74
2018-09-14T02:51:25.091Z,1014.75
2018-09-14T02:52:25.076Z,1014.74
2018-09-14T02:53:25.090Z,1014.74
2018-09-14T02:54:25.062Z,1014.74
2018-09-14T02:55:25.042Z,1014.76
2018-09-14T02:56:25.030Z,1014.77
2018-09-14T02:57:25.035Z,1014.73
2018-09-14T02:58:25.033Z,1014.75
2018-09-14T02:59:24.997Z,1014.77
2018-09-14T03:00:24.993Z,1014.75
2018-09-14T03:01:24.977Z,1014.84
2018-09-14T03:02:24.964Z,1014.77
2018-09-14T03:03:24.978Z,1014.77
2018-09-14T03:04:24.943Z,1014.78
2018-09-14T03:05:24.930Z,1014.79
2018-09-14T03:06:24.935Z,1014.75
2018-09-14T03:07:24.928Z,1014.77
2018-09-14T03:08:24.958Z,1014.75
2018-09-14T03:09:24.886Z,1014.76
2018-09-14T03:10:24.920Z,1014.75
2018-09-14T03:11:24.864Z,1014.74
2018-09-14T03:12:24.871Z,1014.76
2018-09-14T03:13:24.867Z,1014.77
2018-09-14T03:14:24.838Z,1014.74
2018-09-14T03:15:24.819Z,1014.74
2018-09-14T03:16:24.828Z,1014.71
2018-09-14T03:17:24.796Z,1014.78
2018-09-14T03:18:24.829Z,1014.74
2018-09-14T03:19:24.774Z,1014.74
2018-09-14T03:20:24.763Z,1014.72
2018-09-14T03:21:24.753Z,1014.75
2018-09-14T03:22:24.741Z,1014.75
2018-09-14T03:23:24.752Z,1014.73
2018-09-14T03:24:24.727Z,1014.71
2018-09-14T03:25:24.707Z,1014.74
2018-09-14T03:26:24.695Z,1014.72
2018-09-14T03:27:24.685Z,1014.73
2018-09-14T03:28:24.702Z,1014.69
2018-09-14T03:29:24.661Z,1014.73
2018-09-14T03:30:24.657Z,1014.72
2018-09-14T03:31:24.643Z,1014.74
2018-09-14T03:32:24.630Z,1014.75
2018-09-14T03:33:24.621Z,1014.76
2018-09-14T03:34:24.630Z,1014.77
2018-09-14T03:35:24.595Z,1014.74
2018-09-14T03:36:24.596Z,1014.72
2018-09-14T03:37:24.572Z,1014.75
2018-09-14T03:38:24.564Z,1014.70
2018-09-14T03:39:24.648Z,1014.77
2018-09-14T03:40:24.545Z,1014.73
2018-09-14T03:41:24.527Z,1014.72
2018-09-14T03:42:24.530Z,1014.73
2018-09-14T03:43:24.508Z,1014.74
2018-09-14T03:44:24.517Z,1014.75
2018-09-14T03:45:24.483Z,1014.76
2018-09-14T03:46:24.473Z,1014.72
2018-09-14T03:47:24.461Z,1014.74
2018-09-14T03:48:24.463Z,1014.70
2018-09-14T03:49:24.463Z,1014.72
2018-09-14T03:50:24.427Z,1014.70
2018-09-14T03:51:24.417Z,1014.68
2018-09-14T03:52:24.406Z,1014.66
2018-09-14T03:53:24.401Z,1014.68
2018-09-14T03:54:24.416Z,1014.72
2018-09-14T03:55:24.370Z,1014.71
2018-09-14T03:56:24.361Z,1014.69
2018-09-14T03:57:24.413Z,1014.67
2018-09-14T03:58:24.340Z,1014.66
2018-09-14T03:59:24.350Z,1014.61
2018-09-14T04:00:24.333Z,1014.62
2018-09-14T04:01:24.304Z,1014.65
2018-09-14T04:02:24.293Z,1014.66
2018-09-14T04:03:24.284Z,1014.63
2018-09-14T04:04:24.298Z,1014.62
2018-09-14T04:05:24.266Z,1014.64
2018-09-14T04:06:24.253Z,1014.67
2018-09-14T04:07:24.237Z,1014.65
2018-09-14T04:08:24.227Z,1014.64
2018-09-14T04:09:24.239Z,1014.64
2018-09-14T04:10:24.204Z,1014.61
2018-09-14T04:11:24.192Z,1014.59
2018-09-14T04:12:24.195Z,1014.60
2018-09-14T04:13:24.174Z,1014.57
2018-09-14T04:14:24.185Z,1014.58
2018-09-14T04:15:24.148Z,1014.63
2018-09-14T04:16:24.137Z,1014.57
2018-09-14T04:17:24.125Z,1014.57
2018-09-14T04:18:24.126Z,1014.59
2018-09-14T04:19:24.126Z,1014.58
2018-09-14T04:20:24.094Z,1014.63
2018-09-14T04:21:24.090Z,1014.52
2018-09-14T04:22:24.071Z,1014.59
2018-09-14T04:23:24.088Z,1014.59
2018-09-14T04:24:24.085Z,1014.59
2018-09-14T04:25:24.049Z,1014.58
2018-09-14T04:26:24.025Z,1014.58
2018-09-14T04:27:24.013Z,1014.57
2018-09-14T04:28:24.003Z,1014.59
2018-09-14T04:29:24.016Z,1014.57
2018-09-14T04:30:23.980Z,1014.54
2018-09-14T04:31:23.986Z,1014.58
2018-09-14T04:32:23.980Z,1014.57
2018-09-14T04:33:23.948Z,1014.58
2018-09-14T04:34:23.963Z,1014.51
2018-09-14T04:35:23.928Z,1014.52
2018-09-14T04:36:23.921Z,1014.50
2018-09-14T04:37:23.903Z,1014.46
2018-09-14T04:38:23.916Z,1014.47
2018-09-14T04:39:23.909Z,1014.50
2018-09-14T04:40:23.871Z,1014.50
2018-09-14T04:41:23.857Z,1014.50
2018-09-14T04:42:23.847Z,1014.52
2018-09-14T04:43:23.836Z,1014.53
2018-09-14T04:44:23.866Z,1014.50
2018-09-14T04:45:23.813Z,1014.52
2018-09-14T04:46:23.824Z,1014.55
2018-09-14T04:47:23.791Z,1014.55
2018-09-14T04:48:23.783Z,1014.55
2018-09-14T04:49:23.794Z,1014.58
2018-09-14T04:50:23.768Z,1014.56
2018-09-14T04:51:23.827Z,1014.56
2018-09-14T04:52:23.736Z,1014.64
2018-09-14T04:53:23.727Z,1014.63
2018-09-14T04:54:23.737Z,1014.65
2018-09-14T04:55:23.705Z,1014.67
2018-09-14T04:56:23.708Z,1014.65
2018-09-14T04:57:23.766Z,1014.72
2018-09-14T04:58:23.666Z,1014.66
2018-09-14T04:59:23.681Z,1014.67
2018-09-14T05:00:23.648Z,1014.68
2018-09-14T05:01:23.636Z,1014.70
2018-09-14T05:02:23.637Z,1014.66
2018-09-14T05:03:23.651Z,1014.66
2018-09-14T05:04:23.625Z,1014.69
2018-09-14T05:05:23.590Z,1014.77
2018-09-14T05:06:23.577Z,1014.73
2018-09-14T05:07:23.569Z,1014.70
2018-09-14T05:08:23.566Z,1014.69
2018-09-14T05:09:23.569Z,1014.73
2018-09-14T05:10:23.537Z,1014.70
2018-09-14T05:11:23.522Z,1014.72
2018-09-14T05:12:23.511Z,1014.68
2018-09-14T05:13:23.502Z,1014.69
2018-09-14T05:14:23.525Z,1014.73
2018-09-14T05:15:23.478Z,1014.66
2018-09-14T05:16:23.468Z,1014.68
2018-09-14T05:17:23.454Z,1014.67
2018-09-14T05:18:23.444Z,1014.74
2018-09-14T05:19:23.436Z,1014.64
2018-09-14T05:20:23.457Z,1014.71
2018-09-14T05:21:23.411Z,1014.73
2018-09-14T05:22:23.401Z,1014.76
2018-09-14T05:23:23.388Z,1014.81
2018-09-14T05:24:23.432Z,1014.77
2018-09-14T05:25:23.404Z,1014.80
2018-09-14T05:26:23.356Z,1014.78
2018-09-14T05:27:23.344Z,1014.79
2018-09-14T05:28:23.348Z,1014.72
2018-09-14T05:29:23.323Z,1014.76
2018-09-14T05:30:23.334Z,1014.76
2018-09-14T05:31:23.310Z,1014.74
2018-09-14T05:32:23.292Z,1014.79
2018-09-14T05:33:24.264Z,1014.77
2018-09-14T05:34:24.264Z,1014.77
2018-09-14T05:35:23.279Z,1014.82
2018-09-14T05:36:23.244Z,1014.77
2018-09-14T05:37:23.237Z,1014.81
2018-09-14T05:38:23.256Z,1014.85
2018-09-14T05:39:23.210Z,1014.81
2018-09-14T05:40:23.223Z,1014.81
2018-09-14T05:41:23.187Z,1014.86
2018-09-14T05:42:23.175Z,1014.85
2018-09-14T05:43:23.182Z,1014.87
2018-09-14T05:44:23.153Z,1014.88
2018-09-14T05:45:23.165Z,1014.89
2018-09-14T05:46:23.132Z,1014.89
2018-09-14T05:47:23.123Z,1014.90
2018-09-14T05:48:23.109Z,1014.91
2018-09-14T05:49:23.111Z,1014.87
2018-09-14T05:50:23.110Z,1014.85
2018-09-14T05:51:23.076Z,1014.86
2018-09-14T05:52:23.103Z,1014.89
2018-09-14T05:53:23.053Z,1014.85
2018-09-14T05:54:23.048Z,1014.89
2018-09-14T05:55:23.064Z,1014.90
2018-09-14T05:56:23.027Z,1014.90
2018-09-14T05:57:23.014Z,1014.88
2018-09-14T05:58:22.997Z,1014.89
2018-09-14T05:59:22.989Z,1014.91
2018-09-14T06:00:22.998Z,1014.96
2018-09-14T06:01:22.963Z,1014.97
2018-09-14T06:02:22.961Z,1014.92
2018-09-14T06:03:22.941Z,1014.91
2018-09-14T06:04:22.931Z,1014.96
2018-09-14T06:05:22.944Z,1014.93
2018-09-14T06:06:22.912Z,1014.97
2018-09-14T06:07:22.903Z,1014.96
2018-09-14T06:08:22.887Z,1014.96
2018-09-14T06:09:22.878Z,1014.98
2018-09-14T06:10:22.898Z,1014.99
2018-09-14T06:11:22.871Z,1014.99
2018-09-14T06:12:22.844Z,1014.95
2018-09-14T06:13:22.854Z,1015.00
2018-09-14T06:14:22.818Z,1014.97
2018-09-14T06:15:22.830Z,1014.99
2018-09-14T06:16:22.800Z,1015.01
2018-09-14T06:17:22.785Z,1014.99
2018-09-14T06:18:22.773Z,1015.01
2018-09-14T06:19:22.763Z,1015.09
2018-09-14T06:20:22.778Z,1015.07
2018-09-14T06:21:22.759Z,1015.04
2018-09-14T06:22:22.729Z,1015.05
2018-09-14T06:23:22.719Z,1015.05
2018-09-14T06:24:22.718Z,1015.02
2018-09-14T06:25:22.719Z,1015.00
2018-09-14T06:26:22.685Z,1014.99
2018-09-14T06:27:22.674Z,1014.98
2018-09-14T06:28:22.668Z,1014.99
2018-09-14T06:29:22.658Z,1014.98
2018-09-14T06:30:22.788Z,1015.00
2018-09-14T06:31:22.667Z,1014.98
2018-09-14T06:32:22.637Z,1015.00
2018-09-14T06:33:22.629Z,1015.01
2018-09-14T06:34:22.611Z,1015.01
2018-09-14T06:35:22.637Z,1015.03
2018-09-14T06:36:22.589Z,1015.05
2018-09-14T06:37:22.566Z,1015.11
2018-09-14T06:38:22.673Z,1015.06
2018-09-14T06:39:22.552Z,1015.12
2018-09-14T06:40:22.552Z,1015.02
2018-09-14T06:41:22.533Z,1015.07
2018-09-14T06:42:22.534Z,1015.03
2018-09-14T06:43:22.502Z,1015.04
2018-09-14T06:44:22.506Z,1015.07
2018-09-14T06:45:22.523Z,1015.02
2018-09-14T06:46:22.460Z,1015.06
2018-09-14T06:47:22.465Z,1015.09
2018-09-14T06:48:22.439Z,1015.08
2018-09-14T06:49:22.433Z,1015.11
2018-09-14T06:50:22.429Z,1015.05
2018-09-14T06:51:22.429Z,1015.05
2018-09-14T06:52:22.395Z,1015.05
2018-09-14T06:53:22.457Z,1015.03
2018-09-14T06:54:22.370Z,1015.05
2018-09-14T06:55:22.392Z,1015.04
2018-09-14T06:56:22.352Z,1015.06
2018-09-14T06:57:22.349Z,1015.06
2018-09-14T06:58:22.326Z,1015.10
2018-09-14T06:59:22.320Z,1015.10
2018-09-14T07:00:22.402Z,1015.10
2018-09-14T07:01:22.343Z,1015.10
2018-09-14T07:02:22.296Z,1015.11
2018-09-14T07:03:22.277Z,1015.16
2018-09-14T07:04:22.299Z,1015.18
2018-09-14T07:05:22.262Z,1015.17
2018-09-14T07:06:22.311Z,1015.16
2018-09-14T07:07:22.225Z,1015.18
2018-09-14T07:08:22.240Z,1015.13
2018-09-14T07:09:22.204Z,1015.13
2018-09-14T07:10:22.195Z,1015.13
2018-09-14T07:11:22.263Z,1015.10
2018-09-14T07:12:22.176Z,1015.08
2018-09-14T07:13:22.194Z,1015.11
2018-09-14T07:14:22.166Z,1015.14
2018-09-14T07:15:22.160Z,1015.13
2018-09-14T07:16:22.154Z,1015.14
2018-09-14T07:17:22.113Z,1015.15
2018-09-14T07:18:22.103Z,1015.20
2018-09-14T07:19:22.105Z,1015.22
2018-09-14T07:20:22.080Z,1015.23
2018-09-14T07:21:22.092Z,1015.27
2018-09-14T07:22:22.182Z,1015.25
2018-09-14T07:23:22.058Z,1015.25
2018-09-14T07:24:22.125Z,1015.20
2018-09-14T07:25:22.094Z,1015.29
2018-09-14T07:26:22.041Z,1015.30
2018-09-14T07:27:22.043Z,1015.26
2018-09-14T07:28:21.992Z,1015.25
2018-09-14T07:29:21.997Z,1015.30
2018-09-14T07:30:22.006Z,1015.30
2018-09-14T07:31:21.989Z,1015.31
2018-09-14T07:32:21.973Z,1015.32
2018-09-14T07:33:21.941Z,1015.33
2018-09-14T07:34:21.936Z,1015.34
2018-09-14T07:35:21.912Z,1015.32
2018-09-14T07:36:21.969Z,1015.30
2018-09-14T07:37:21.900Z,1015.35
2018-09-14T07:38:21.883Z,1015.35
2018-09-14T07:39:21.868Z,1015.36
2018-09-14T07:40:21.860Z,1015.33
2018-09-14T07:41:21.873Z,1015.32
2018-09-14T07:42:21.838Z,1015.38
2018-09-14T07:43:21.837Z,1015.36
2018-09-14T07:44:21.849Z,1015.39
2018-09-14T07:45:21.822Z,1015.36
2018-09-14T07:46:21.816Z,1015.37
2018-09-14T07:47:21.778Z,1015.34
2018-09-14T07:48:21.875Z,1015.34
2018-09-14T07:49:21.869Z,1015.39
2018-09-14T07:50:21.751Z,1015.38
2018-09-14T07:51:21.760Z,1015.45
2018-09-14T07:52:21.732Z,1015.42
2018-09-14T07:53:21.712Z,1015.44
2018-09-14T07:54:21.723Z,1015.42
2018-09-14T07:55:21.709Z,1015.47
2018-09-14T07:56:21.706Z,1015.46
2018-09-14T07:57:21.693Z,1015.42
2018-09-14T07:58:21.664Z,1015.49
2018-09-14T07:59:21.647Z,1015.44
2018-09-14T08:00:21.633Z,1015.47
2018-09-14T08:01:21.682Z,1015.49
2018-09-14T08:02:21.679Z,1015.45
2018-09-14T08:03:21.619Z,1015.42
2018-09-14T08:04:21.588Z,1015.42
2018-09-14T08:05:21.583Z,1015.38
2018-09-14T08:06:21.592Z,1015.42
2018-09-14T08:07:21.558Z,1015.43
2018-09-14T08:08:21.625Z,1015.42
2018-09-14T08:09:21.536Z,1015.39
2018-09-14T08:10:21.525Z,1015.40
2018-09-14T08:11:21.535Z,1015.39
2018-09-14T08:12:21.523Z,1015.35
2018-09-14T08:13:21.683Z,1015.36
2018-09-14T08:14:21.484Z,1015.38
2018-09-14T08:15:21.472Z,1015.31
2018-09-14T08:16:21.478Z,1015.39
2018-09-14T08:17:21.443Z,1015.35
2018-09-14T08:18:21.449Z,1015.36
2018-09-14T08:19:21.429Z,1015.33
2018-09-14T08:20:21.413Z,1015.32
2018-09-14T08:21:21.586Z,1015.31
2018-09-14T08:22:21.390Z,1015.32
2018-09-14T08:23:21.390Z,1015.34
2018-09-14T08:24:21.376Z,1015.33
2018-09-14T08:25:21.361Z,1015.38
2018-09-14T08:26:21.371Z,1015.39
2018-09-14T08:27:21.438Z,1015.40
2018-09-14T08:28:21.329Z,1015.40
2018-09-14T08:29:21.308Z,1015.40
2018-09-14T08:30:21.299Z,1015.43
2018-09-14T08:31:21.309Z,1015.44
2018-09-14T08:32:21.302Z,1015.44
2018-09-14T08:33:21.265Z,1015.44
2018-09-14T08:34:21.283Z,1015.44
2018-09-14T08:35:21.243Z,1015.47
2018-09-14T08:36:21.312Z,1015.48
2018-09-14T08:37:21.230Z,1015.51
2018-09-14T08:38:21.232Z,1015.50
2018-09-14T08:39:21.198Z,1015.50
2018-09-14T08:40:21.191Z,1015.49
2018-09-14T08:41:21.282Z,1015.50
2018-09-14T08:42:21.197Z,1015.50
2018-09-14T08:43:21.217Z,1015.57
2018-09-14T08:44:21.196Z,1015.57
2018-09-14T08:45:21.147Z,1015.54
2018-09-14T08:46:21.129Z,1015.54
2018-09-14T08:47:21.194Z,1015.56
2018-09-14T08:48:21.136Z,1015.59
2018-09-14T08:49:21.091Z,1015.62
2018-09-14T08:50:21.092Z,1015.63
2018-09-14T08:51:21.075Z,1015.62
2018-09-14T08:52:21.076Z,1015.62
2018-09-14T08:53:21.052Z,1015.59
2018-09-14T08:54:21.033Z,1015.61
2018-09-14T08:55:21.020Z,1015.61
2018-09-14T08:56:21.007Z,1015.62
2018-09-14T08:57:21.030Z,1015.56
2018-09-14T08:58:20.990Z,1015.54
2018-09-14T08:59:20.974Z,1015.58
2018-09-14T09:00:20.962Z,1015.54
2018-09-14T09:01:20.960Z,1015.56
2018-09-14T09:02:20.965Z,1015.53
2018-09-14T09:03:20.952Z,1015.51
2018-09-14T09:04:20.917Z,1015.54
2018-09-14T09:05:20.908Z,1015.50
2018-09-14T09:06:20.903Z,1015.53
2018-09-14T09:07:21.079Z,1015.50
2018-09-14T09:08:20.874Z,1015.50
2018-09-14T09:09:20.862Z,1015.51
2018-09-14T09:10:20.849Z,1015.53
2018-09-14T09:11:20.977Z,1015.56
2018-09-14T09:12:20.855Z,1015.56
2018-09-14T09:13:20.841Z,1015.52
2018-09-14T09:14:20.808Z,1015.57
2018-09-14T09:15:20.793Z,1015.52
2018-09-14T09:16:20.790Z,1015.54
2018-09-14T09:17:20.829Z,1015.51
2018-09-14T09:18:20.764Z,1015.52
2018-09-14T09:19:20.814Z,1015.45
2018-09-14T09:20:20.737Z,1015.45
2018-09-14T09:21:20.792Z,1015.43
2018-09-14T09:22:20.776Z,1015.42
2018-09-14T09:23:20.792Z,1015.42
2018-09-14T09:24:20.697Z,1015.40
2018-09-14T09:25:20.683Z,1015.42
2018-09-14T09:26:20.675Z,1015.42
2018-09-14T09:27:20.697Z,1015.39
2018-09-14T09:28:21.270Z,1015.37
2018-09-14T09:29:20.641Z,1015.39
2018-09-14T09:30:20.708Z,1015.36
2018-09-14T09:31:20.635Z,1015.39
2018-09-14T09:32:20.628Z,1015.36
2018-09-14T09:33:20.721Z,1015.35
2018-09-14T09:34:20.594Z,1015.38
2018-09-14T09:35:20.584Z,1015.35
2018-09-14T09:36:20.567Z,1015.35
2018-09-14T09:37:20.570Z,1015.31
2018-09-14T09:38:20.563Z,1015.34
2018-09-14T09:39:20.525Z,1015.32
2018-09-14T09:40:20.514Z,1015.35
2018-09-14T09:41:20.527Z,1015.29
2018-09-14T09:42:20.519Z,1015.32
2018-09-14T09:43:20.564Z,1015.28
2018-09-14T09:44:20.475Z,1015.28
2018-09-14T09:45:20.464Z,1015.31
2018-09-14T09:46:20.453Z,1015.31
2018-09-14T09:47:20.460Z,1015.31
2018-09-14T09:48:20.440Z,1015.24
2018-09-14T09:49:20.415Z,1015.33
2018-09-14T09:50:20.401Z,1015.27
2018-09-14T09:51:20.533Z,1015.26
2018-09-14T09:52:20.405Z,1015.22
2018-09-14T09:53:20.371Z,1015.28
2018-09-14T09:54:20.361Z,1015.26
2018-09-14T09:55:20.349Z,1015.26
2018-09-14T09:56:20.337Z,1015.26
2018-09-14T09:57:20.354Z,1015.27
2018-09-14T09:58:20.315Z,1015.25
2018-09-14T09:59:20.315Z,1015.27
2018-09-14T10:00:20.292Z,1015.31
2018-09-14T10:01:20.288Z,1015.30
2018-09-14T10:02:20.303Z,1015.27
2018-09-14T10:03:20.257Z,1015.25
2018-09-14T10:04:20.246Z,1015.24
2018-09-14T10:05:20.239Z,1015.25
2018-09-14T10:06:20.225Z,1015.24
2018-09-14T10:07:20.236Z,1015.25
2018-09-14T10:08:20.228Z,1015.27
2018-09-14T10:09:20.194Z,1015.23
2018-09-14T10:10:20.183Z,1015.21
2018-09-14T10:11:20.173Z,1015.22
2018-09-14T10:12:20.211Z,1015.18
2018-09-14T10:13:20.176Z,1015.22
2018-09-14T10:14:20.137Z,1015.21
2018-09-14T10:15:20.130Z,1015.19
2018-09-14T10:16:20.138Z,1015.21
2018-09-14T10:17:20.126Z,1015.18
2018-09-14T10:18:20.104Z,1015.20
2018-09-14T10:19:20.080Z,1015.15
2018-09-14T10:20:20.068Z,1015.13
2018-09-14T10:21:20.164Z,1015.20
2018-09-14T10:22:20.084Z,1015.10
2018-09-14T10:23:20.073Z,1015.11
2018-09-14T10:24:20.025Z,1015.13
2018-09-14T10:25:20.075Z,1015.06
2018-09-14T10:26:20.107Z,1015.02
2018-09-14T10:27:20.101Z,1015.10
2018-09-14T10:28:20.015Z,1015.11
2018-09-14T10:29:20.776Z,1015.09
2018-09-14T10:30:19.958Z,1015.10
2018-09-14T10:31:19.947Z,1015.08
2018-09-14T10:32:20.089Z,1015.09
2018-09-14T10:33:19.958Z,1015.12
2018-09-14T10:34:19.914Z,1015.05
2018-09-14T10:35:19.978Z,1015.05
2018-09-14T10:36:19.949Z,1015.07
2018-09-14T10:37:19.891Z,1015.04
2018-09-14T10:38:19.911Z,1015.02
2018-09-14T10:39:19.859Z,1015.04
2018-09-14T10:40:19.874Z,1015.01
2018-09-14T10:41:19.855Z,1014.97
2018-09-14T10:42:19.828Z,1014.98
2018-09-14T10:43:19.849Z,1015.03
2018-09-14T10:44:19.802Z,1014.99
2018-09-14T10:45:19.881Z,1014.98
2018-09-14T10:46:19.780Z,1014.96
2018-09-14T10:47:19.771Z,1014.98
2018-09-14T10:48:19.791Z,1014.94
2018-09-14T10:49:19.754Z,1014.93
2018-09-14T10:50:19.736Z,1014.93
2018-09-14T10:51:19.725Z,1014.90
2018-09-14T10:52:19.729Z,1014.94
2018-09-14T10:53:19.728Z,1014.94
2018-09-14T10:54:19.692Z,1014.88
2018-09-14T10:55:19.695Z,1014.86
2018-09-14T10:56:19.716Z,1014.84
2018-09-14T10:57:19.660Z,1014.84
2018-09-14T10:58:20.317Z,1014.84
2018-09-14T10:59:19.667Z,1014.84
2018-09-14T11:00:19.714Z,1014.83
2018-09-14T11:01:19.636Z,1014.79
2018-09-14T11:02:19.609Z,1014.82
2018-09-14T11:03:19.618Z,1014.83
2018-09-14T11:04:19.700Z,1014.83
2018-09-14T11:05:19.580Z,1014.81
2018-09-14T11:06:19.564Z,1014.83
2018-09-14T11:07:19.700Z,1014.83
2018-09-14T11:08:19.606Z,1014.84
2018-09-14T11:09:19.580Z,1014.80
2018-09-14T11:10:19.525Z,1014.80
2018-09-14T11:11:19.514Z,1014.83
2018-09-14T11:12:19.506Z,1014.77
2018-09-14T11:13:19.506Z,1014.79
2018-09-14T11:14:19.473Z,1014.81
2018-09-14T11:15:19.460Z,1014.77
2018-09-14T11:16:19.452Z,1014.73
2018-09-14T11:17:19.464Z,1014.75
2018-09-14T11:18:19.449Z,1014.76
2018-09-14T11:19:19.419Z,1014.79
2018-09-14T11:20:19.404Z,1014.79
2018-09-14T11:21:19.398Z,1014.71
2018-09-14T11:22:19.387Z,1014.69
2018-09-14T11:23:19.401Z,1014.74
2018-09-14T11:24:19.421Z,1014.70
2018-09-14T11:25:19.451Z,1014.69
2018-09-14T11:26:19.338Z,1014.70
2018-09-14T11:27:19.333Z,1014.68
2018-09-14T11:28:19.352Z,1014.77
2018-09-14T11:29:19.316Z,1014.71
2018-09-14T11:30:19.294Z,1014.71
2018-09-14T11:31:19.286Z,1014.65
2018-09-14T11:32:19.319Z,1014.72
2018-09-14T11:33:19.302Z,1014.71
2018-09-14T11:34:19.255Z,1014.76
2018-09-14T11:35:19.241Z,1014.69
2018-09-14T11:36:19.231Z,1014.73
2018-09-14T11:37:19.235Z,1014.69
2018-09-14T11:38:19.334Z,1014.66
2018-09-14T11:39:19.202Z,1014.74
2018-09-14T11:40:19.208Z,1014.70
2018-09-14T11:41:19.175Z,1014.72
2018-09-14T11:42:19.175Z,1014.74
2018-09-14T11:43:19.175Z,1014.63
2018-09-14T11:44:19.142Z,1014.63
2018-09-14T11:45:19.217Z,1014.54
2018-09-14T11:46:19.123Z,1014.62
2018-09-14T11:47:19.109Z,1014.56
2018-09-14T11:48:19.124Z,1014.56
2018-09-14T11:49:19.089Z,1014.54
2018-09-14T11:50:19.075Z,1014.52
2018-09-14T11:51:19.070Z,1014.51
2018-09-14T11:52:19.058Z,1014.56
2018-09-14T11:53:19.048Z,1014.51
2018-09-14T11:54:19.185Z,1014.50
2018-09-14T11:55:19.020Z,1014.48
2018-09-14T11:56:19.052Z,1014.48
2018-09-14T11:57:19.005Z,1014.45
2018-09-14T11:58:19.809Z,1014.44
2018-09-14T11:59:18.979Z,1014.43
2018-09-14T12:00:18.973Z,1014.41
2018-09-14T12:01:19.018Z,1014.39
2018-09-14T12:02:18.952Z,1014.38
2018-09-14T12:03:18.939Z,1014.38
2018-09-14T12:04:19.006Z,1014.38
2018-09-14T12:05:18.945Z,1014.40